createdAt,value
2018-03-25T00:00:39.960Z,87.40
2018-03-25T00:03:08.631Z,87.70
2018-03-25T00:05:37.047Z,87.90
2018-03-25T00:08:05.081Z,87.90
2018-03-25T00:10:32.648Z,88.10
2018-03-25T00:13:00.269Z,88.30
2018-03-25T00:15:27.923Z,88.30
2018-03-25T00:17:55.870Z,88.20
2018-03-25T00:20:23.446Z,88.10
2018-03-25T00:22:51.186Z,88.10
2018-03-25T00:25:19.410Z,88.10
2018-03-25T00:27:46.980Z,87.90
2018-03-25T00:30:14.601Z,88.00
2018-03-25T00:32:42.650Z,87.80
2018-03-25T00:35:10.257Z,87.30
2018-03-25T00:37:37.966Z,86.60
2018-03-25T00:40:05.623Z,86.60
2018-03-25T00:42:33.263Z,86.60
2018-03-25T00:45:00.824Z,86.10
2018-03-25T00:47:28.806Z,85.90
2018-03-25T00:49:56.415Z,85.70
2018-03-25T00:52:24.779Z,85.80
2018-03-25T00:54:52.960Z,85.30
2018-03-25T00:57:20.540Z,85.00
2018-03-25T00:59:48.184Z,84.60
2018-03-25T01:02:15.772Z,83.90
2018-03-25T01:04:44.378Z,83.60
2018-03-25T01:07:12.007Z,83.60
2018-03-25T01:09:39.597Z,83.50
2018-03-25T01:12:07.180Z,83.40
2018-03-25T01:14:34.855Z,82.90
2018-03-25T01:17:03.770Z,82.70
2018-03-25T01:19:31.377Z,82.40
2018-03-25T01:21:58.973Z,82.10
2018-03-25T01:24:26.632Z,82.00
2018-03-25T01:26:54.252Z,81.90
2018-03-25T01:29:21.840Z,81.90
2018-03-25T01:31:49.587Z,82.00
2018-03-25T01:34:17.912Z,81.60
2018-03-25T01:36:45.567Z,81.10
2018-03-25T01:39:14.267Z,80.10
2018-03-25T01:41:42.139Z,79.50
2018-03-25T01:44:09.744Z,79.70
2018-03-25T01:46:38.719Z,78.90
2018-03-25T01:49:06.667Z,79.30
2018-03-25T01:51:34.247Z,78.90
2018-03-25T01:54:01.821Z,78.10
2018-03-25T01:56:29.932Z,77.60
2018-03-25T01:58:58.275Z,77.00
2018-03-25T02:01:25.941Z,77.00
2018-03-25T02:03:54.237Z,76.60
2018-03-25T02:06:21.850Z,76.30
2018-03-25T02:08:49.415Z,76.00
2018-03-25T02:11:17.026Z,75.90
2018-03-25T02:13:44.603Z,75.90
2018-03-25T02:16:13.474Z,74.70
2018-03-25T02:18:41.068Z,74.70
2018-03-25T02:21:08.631Z,74.10
2018-03-25T02:23:36.223Z,73.80
2018-03-25T02:26:03.935Z,73.60
2018-03-25T02:28:31.503Z,73.70
2018-03-25T02:30:59.104Z,73.70
2018-03-25T02:33:27.173Z,74.00
2018-03-25T02:35:54.754Z,74.60
2018-03-25T02:38:22.330Z,74.00
2018-03-25T02:40:49.914Z,73.70
2018-03-25T02:43:17.522Z,73.60
2018-03-25T02:45:45.145Z,73.30
2018-03-25T02:48:12.727Z,73.40
2018-03-25T02:50:41.064Z,73.30
2018-03-25T02:53:08.859Z,73.20
2018-03-25T02:55:36.426Z,73.20
2018-03-25T02:58:04.049Z,73.20
2018-03-25T03:00:31.658Z,73.30
2018-03-25T03:03:00.028Z,73.00
2018-03-25T03:05:27.651Z,72.70
2018-03-25T03:07:55.219Z,72.50
2018-03-25T03:10:23.359Z,72.30
2018-03-25T03:12:51.738Z,70.90
2018-03-25T03:15:20.078Z,71.00
2018-03-25T03:17:47.690Z,70.90
2018-03-25T03:20:15.294Z,70.40
2018-03-25T03:22:43.493Z,70.60
2018-03-25T03:25:11.056Z,70.40
2018-03-25T03:27:39.435Z,70.10
2018-03-25T03:30:07.067Z,69.70
2018-03-25T03:32:34.988Z,69.40
2018-03-25T03:35:03.346Z,68.80
2018-03-25T03:37:30.911Z,68.80
2018-03-25T03:39:58.486Z,68.40
2018-03-25T03:42:26.825Z,68.50
2018-03-25T03:44:54.403Z,68.40
2018-03-25T03:47:21.990Z,68.30
2018-03-25T03:49:49.580Z,68.60
2018-03-25T03:52:17.164Z,68.70
2018-03-25T03:54:44.761Z,68.70
2018-03-25T03:57:12.419Z,68.70
2018-03-25T03:59:40.030Z,68.40
2018-03-25T04:02:07.598Z,68.20
2018-03-25T04:04:35.220Z,67.90
2018-03-25T04:07:02.855Z,68.00
2018-03-25T04:09:30.423Z,68.00
2018-03-25T04:11:58.030Z,68.00
2018-03-25T04:14:25.594Z,68.10
2018-03-25T04:16:53.918Z,68.40
2018-03-25T04:19:21.502Z,68.30
2018-03-25T04:21:49.380Z,68.30
2018-03-25T04:24:16.959Z,68.30
2018-03-25T04:26:46.035Z,68.40
2018-03-25T04:29:14.064Z,68.30
2018-03-25T04:31:41.630Z,68.40
2018-03-25T04:34:09.208Z,68.20
2018-03-25T04:36:36.895Z,68.40
2018-03-25T04:39:04.571Z,68.50
2018-03-25T04:41:32.142Z,68.80
2018-03-25T04:43:59.738Z,68.90
2018-03-25T04:46:28.076Z,69.10
2018-03-25T04:48:56.449Z,69.70
2018-03-25T04:51:24.513Z,69.00
2018-03-25T04:53:52.083Z,69.40
2018-03-25T04:56:19.681Z,69.50
2018-03-25T04:58:47.267Z,69.60
2018-03-25T05:01:14.864Z,69.60
2018-03-25T05:03:42.435Z,70.40
2018-03-25T05:06:10.007Z,70.00
2018-03-25T05:08:37.592Z,70.10
2018-03-25T05:11:05.178Z,70.40
2018-03-25T05:13:33.635Z,70.60
2018-03-25T05:16:01.970Z,70.50
2018-03-25T05:18:29.574Z,70.40
2018-03-25T05:20:57.188Z,70.20
2018-03-25T05:23:24.797Z,70.10
2018-03-25T05:25:52.368Z,69.80
2018-03-25T05:28:19.974Z,69.60
2018-03-25T05:30:47.564Z,69.40
2018-03-25T05:33:15.182Z,69.20
2018-03-25T05:35:43.510Z,69.40
2018-03-25T05:38:11.704Z,69.30
2018-03-25T05:40:39.545Z,69.40
2018-03-25T05:43:07.209Z,69.50
2018-03-25T05:45:34.923Z,69.60
2018-03-25T05:48:03.603Z,69.60
2018-03-25T05:50:31.170Z,69.60
2018-03-25T05:52:58.734Z,68.50
2018-03-25T05:55:28.018Z,69.90
2018-03-25T05:57:55.591Z,69.70
2018-03-25T06:00:23.156Z,69.90
2018-03-25T06:02:51.327Z,70.00
2018-03-25T06:05:18.909Z,70.20
2018-03-25T06:07:47.239Z,70.60
2018-03-25T06:10:14.826Z,70.40
2018-03-25T06:12:42.402Z,70.70
2018-03-25T06:15:09.971Z,70.70
2018-03-25T06:17:39.957Z,71.00
2018-03-25T06:20:07.554Z,70.90
2018-03-25T06:22:36.002Z,71.10
2018-03-25T06:25:03.889Z,71.10
2018-03-25T06:27:31.496Z,71.10
2018-03-25T06:29:59.113Z,71.20
2018-03-25T06:32:27.016Z,71.30
2018-03-25T06:34:55.346Z,71.70
2018-03-25T06:37:23.238Z,71.70
2018-03-25T06:39:50.925Z,71.70
2018-03-25T06:42:19.288Z,71.20
2018-03-25T06:44:47.366Z,71.20
2018-03-25T06:47:15.716Z,71.20
2018-03-25T06:49:43.304Z,71.30
2018-03-25T06:52:10.970Z,71.20
2018-03-25T06:54:38.917Z,71.00
2018-03-25T06:57:07.247Z,70.60
2018-03-25T06:59:35.870Z,70.60
2018-03-25T07:02:10.824Z,70.60
2018-03-25T07:04:42.190Z,70.30
2018-03-25T07:07:15.389Z,70.20
2018-03-25T07:09:43.185Z,69.90
2018-03-25T07:12:12.338Z,69.70
2018-03-25T07:14:39.970Z,69.60
2018-03-25T07:17:07.946Z,69.70
2018-03-25T07:19:36.458Z,69.30
2018-03-25T07:22:04.035Z,69.10
2018-03-25T07:24:31.651Z,68.80
2018-03-25T07:27:01.050Z,68.40
2018-03-25T07:29:29.307Z,68.30
2018-03-25T07:31:56.869Z,68.20
2018-03-25T07:34:24.609Z,67.90
2018-03-25T07:36:52.271Z,67.90
2018-03-25T07:39:19.859Z,66.90
2018-03-25T07:41:47.453Z,66.70
2018-03-25T07:44:17.095Z,66.20
2018-03-25T07:46:45.503Z,65.10
2018-03-25T07:49:13.110Z,65.10
2018-03-25T07:51:41.462Z,65.40
2018-03-25T07:54:09.056Z,65.20
2018-03-25T07:56:37.395Z,64.60
2018-03-25T07:59:05.570Z,64.50
2018-03-25T08:01:33.964Z,63.80
2018-03-25T08:04:01.518Z,63.10
2018-03-25T08:06:29.887Z,62.90
2018-03-25T08:08:59.167Z,62.10
2018-03-25T08:11:26.732Z,62.00
2018-03-25T08:13:54.338Z,62.40
2018-03-25T08:16:21.938Z,61.90
2018-03-25T08:18:49.747Z,61.10
2018-03-25T08:21:17.355Z,60.60
2018-03-25T08:23:45.017Z,59.70
2018-03-25T08:26:12.598Z,60.60
2018-03-25T08:28:40.266Z,60.40
2018-03-25T08:31:08.092Z,60.50
2018-03-25T08:33:36.446Z,59.80
2018-03-25T08:36:04.256Z,59.80
2018-03-25T08:38:32.643Z,59.20
2018-03-25T08:41:00.214Z,59.20
2018-03-25T08:43:27.876Z,59.50
2018-03-25T08:45:55.502Z,59.00
2018-03-25T08:48:23.878Z,58.20
2018-03-25T08:50:52.247Z,58.30
2018-03-25T08:53:24.578Z,58.30
2018-03-25T08:55:52.336Z,57.10
2018-03-25T08:58:20.579Z,57.00
2018-03-25T09:00:48.581Z,57.50
2018-03-25T09:03:17.127Z,57.60
2018-03-25T09:05:44.740Z,57.20
2018-03-25T09:08:12.433Z,57.40
2018-03-25T09:10:40.801Z,58.00
2018-03-25T09:13:08.880Z,57.10
2018-03-25T09:15:37.921Z,57.00
2018-03-25T09:18:07.347Z,55.90
2018-03-25T09:20:35.177Z,55.70
2018-03-25T09:23:03.624Z,56.20
2018-03-25T09:25:31.199Z,56.80
2018-03-25T09:27:58.763Z,56.40
2018-03-25T09:30:26.367Z,57.10
2018-03-25T09:32:55.678Z,56.70
2018-03-25T09:35:24.105Z,56.60
2018-03-25T09:37:51.730Z,56.60
2018-03-25T09:40:19.346Z,56.80
2018-03-25T09:42:47.351Z,57.30
2018-03-25T09:45:16.438Z,57.40
2018-03-25T09:47:44.029Z,57.40
2018-03-25T09:50:13.341Z,56.80
2018-03-25T09:52:40.987Z,56.80
2018-03-25T09:55:09.349Z,56.60
2018-03-25T09:57:37.575Z,56.60
2018-03-25T10:00:05.242Z,56.00
2018-03-25T10:02:38.421Z,55.80
2018-03-25T10:05:07.293Z,56.10
2018-03-25T10:07:35.648Z,56.30
2018-03-25T10:10:04.158Z,56.30
2018-03-25T10:12:32.547Z,56.30
2018-03-25T10:15:00.751Z,56.30
2018-03-25T10:17:29.039Z,54.70
2018-03-25T10:19:56.625Z,54.50
2018-03-25T10:22:24.960Z,54.20
2018-03-25T10:24:52.559Z,54.10
2018-03-25T10:27:21.526Z,53.90
2018-03-25T10:29:49.127Z,53.60
2018-03-25T10:32:17.133Z,53.10
2018-03-25T10:34:44.740Z,52.10
2018-03-25T10:37:12.353Z,52.00
2018-03-25T10:39:43.991Z,51.40
2018-03-25T10:42:11.609Z,51.20
2018-03-25T10:44:39.247Z,51.30
2018-03-25T10:47:07.336Z,50.80
2018-03-25T10:49:35.925Z,49.20
2018-03-25T10:52:03.543Z,49.20
2018-03-25T10:54:31.660Z,47.50
2018-03-25T10:57:00.008Z,45.70
2018-03-25T10:59:27.605Z,45.70
2018-03-25T11:01:55.261Z,46.30
2018-03-25T11:04:23.650Z,46.10
2018-03-25T11:06:52.016Z,46.00
2018-03-25T11:09:20.355Z,44.20
2018-03-25T11:11:47.983Z,44.20
2018-03-25T11:14:16.437Z,43.10
2018-03-25T11:16:44.037Z,43.10
2018-03-25T11:19:11.638Z,42.70
2018-03-25T11:21:39.224Z,42.70
2018-03-25T11:24:06.864Z,43.00
2018-03-25T11:26:34.486Z,43.00
2018-03-25T11:29:02.184Z,42.80
2018-03-25T11:31:29.751Z,42.60
2018-03-25T11:33:57.715Z,42.30
2018-03-25T11:36:25.316Z,42.70
2018-03-25T11:38:52.899Z,41.40
2018-03-25T11:41:21.503Z,41.30
2018-03-25T11:43:49.473Z,41.20
2018-03-25T11:46:19.005Z,41.40
2018-03-25T11:48:48.055Z,41.10
2018-03-25T11:51:16.665Z,42.80
2018-03-25T11:53:44.328Z,42.80
2018-03-25T11:56:12.889Z,42.20
2018-03-25T11:58:41.311Z,39.80
2018-03-25T12:01:09.598Z,39.80
2018-03-25T12:03:37.601Z,39.50
2018-03-25T12:06:05.209Z,39.50
2018-03-25T12:08:32.824Z,39.20
2018-03-25T12:11:00.438Z,37.40
2018-03-25T12:13:28.729Z,37.00
2018-03-25T12:15:57.293Z,37.20
2018-03-25T12:18:25.787Z,38.00
2018-03-25T12:20:53.625Z,36.70
2018-03-25T12:23:21.884Z,35.90
2018-03-25T12:25:51.355Z,36.50
2018-03-25T12:28:19.454Z,36.90
2018-03-25T12:30:48.479Z,38.40
2018-03-25T12:33:17.336Z,38.40
2018-03-25T12:35:45.122Z,39.90
2018-03-25T12:38:13.064Z,39.00
2018-03-25T12:40:41.258Z,39.10
2018-03-25T12:43:10.106Z,39.30
2018-03-25T12:45:39.539Z,40.10
2018-03-25T12:48:07.250Z,40.10
2018-03-25T12:50:35.521Z,40.30
2018-03-25T12:53:03.370Z,40.90
2018-03-25T12:55:31.996Z,40.70
2018-03-25T12:57:59.712Z,40.00
2018-03-25T13:00:27.680Z,40.20
2018-03-25T13:02:55.441Z,39.30
2018-03-25T13:05:23.282Z,39.70
2018-03-25T13:07:51.687Z,39.60
2018-03-25T13:10:19.317Z,39.60
2018-03-25T13:12:47.752Z,39.40
2018-03-25T13:15:15.419Z,39.30
2018-03-25T13:17:44.361Z,39.00
2018-03-25T13:20:12.053Z,37.70
2018-03-25T13:22:39.689Z,37.90
2018-03-25T13:25:08.379Z,38.50
2018-03-25T13:27:36.037Z,39.60
2018-03-25T13:30:04.028Z,38.70
2018-03-25T13:32:33.689Z,39.40
2018-03-25T13:35:01.540Z,40.00
2018-03-25T13:37:30.435Z,40.10
2018-03-25T13:39:58.172Z,40.50
2018-03-25T13:42:26.930Z,40.60
2018-03-25T13:44:54.602Z,40.60
2018-03-25T13:47:24.475Z,37.70
2018-03-25T13:49:53.696Z,37.20
2018-03-25T13:52:21.863Z,37.10
2018-03-25T13:54:50.275Z,38.10
2018-03-25T13:57:18.429Z,38.40
2018-03-25T13:59:47.620Z,38.10
2018-03-25T14:02:16.389Z,36.60
2018-03-25T14:04:44.144Z,36.60
2018-03-25T14:07:12.672Z,35.30
2018-03-25T14:09:40.334Z,35.30
2018-03-25T14:12:08.101Z,35.60
2018-03-25T14:14:35.864Z,35.40
2018-03-25T14:17:03.651Z,35.70
2018-03-25T14:19:31.420Z,36.00
2018-03-25T14:21:59.073Z,34.50
2018-03-25T14:24:27.323Z,34.50
2018-03-25T14:26:54.940Z,35.70
2018-03-25T14:29:22.669Z,34.50
2018-03-25T14:31:50.352Z,33.70
2018-03-25T14:34:18.957Z,33.50
2018-03-25T14:36:46.819Z,33.00
2018-03-25T14:39:15.421Z,33.20
2018-03-25T14:41:44.527Z,33.20
2018-03-25T14:44:12.152Z,34.10
2018-03-25T14:46:40.414Z,32.20
2018-03-25T14:49:08.546Z,31.30
2018-03-25T14:51:36.243Z,32.00
2018-03-25T14:54:03.932Z,31.10
2018-03-25T14:56:32.550Z,30.30
2018-03-25T14:59:01.010Z,30.60
2018-03-25T15:01:31.566Z,28.20
2018-03-25T15:04:04.409Z,28.50
2018-03-25T15:06:33.743Z,28.40
2018-03-25T15:09:02.994Z,28.40
2018-03-25T15:11:31.743Z,28.30
2018-03-25T15:14:00.130Z,27.00
2018-03-25T15:16:27.837Z,27.10
2018-03-25T15:18:56.149Z,27.20
2018-03-25T15:21:26.887Z,26.00
2018-03-25T15:23:55.660Z,26.40
2018-03-25T15:26:29.643Z,26.50
2018-03-25T15:28:57.830Z,27.00
2018-03-25T15:31:25.549Z,27.70
2018-03-25T15:33:53.172Z,28.40
2018-03-25T15:36:20.806Z,28.30
2018-03-25T15:38:54.991Z,27.80
2018-03-25T15:41:23.534Z,27.70
2018-03-25T15:43:52.650Z,27.70
2018-03-25T15:46:24.192Z,27.00
2018-03-25T15:48:52.451Z,26.70
2018-03-25T15:51:21.121Z,27.30
2018-03-25T15:53:50.351Z,26.80
2018-03-25T15:56:18.219Z,26.10
2018-03-25T15:58:46.603Z,23.80
2018-03-25T16:01:15.195Z,23.80
2018-03-25T16:03:42.857Z,26.30
2018-03-25T16:08:45.542Z,25.50
2018-03-25T16:11:14.099Z,26.80
2018-03-25T16:13:43.674Z,26.80
2018-03-25T16:16:15.894Z,27.20
2018-03-25T16:18:44.581Z,27.10
2018-03-25T16:21:12.397Z,24.50
2018-03-25T16:23:40.050Z,23.80
2018-03-25T16:26:07.885Z,25.20
2018-03-25T16:28:35.474Z,26.10
2018-03-25T16:31:03.400Z,26.20
2018-03-25T16:33:30.975Z,26.60
2018-03-25T16:35:59.191Z,26.40
2018-03-25T16:38:27.624Z,26.20
2018-03-25T16:40:55.213Z,26.60
2018-03-25T16:43:22.779Z,26.10
2018-03-25T16:45:51.887Z,26.80
2018-03-25T16:48:19.515Z,26.80
2018-03-25T16:50:47.148Z,26.80
2018-03-25T16:53:14.747Z,27.20
2018-03-25T16:55:42.335Z,27.10
2018-03-25T16:58:11.620Z,27.20
2018-03-25T17:00:39.978Z,28.90
2018-03-25T17:03:07.666Z,28.40
2018-03-25T17:05:35.297Z,29.40
2018-03-25T17:08:02.890Z,28.80
2018-03-25T17:10:31.669Z,28.50
2018-03-25T17:13:00.771Z,28.10
2018-03-25T17:15:29.884Z,28.00
2018-03-25T17:17:57.487Z,28.00
2018-03-25T17:20:25.054Z,28.40
2018-03-25T17:22:52.643Z,29.10
2018-03-25T17:25:20.727Z,30.00
2018-03-25T17:27:48.301Z,29.90
2018-03-25T17:30:16.667Z,30.50
2018-03-25T17:32:44.275Z,30.50
2018-03-25T17:35:11.842Z,30.20
2018-03-25T17:37:39.527Z,31.00
2018-03-25T17:40:07.171Z,31.80
2018-03-25T17:42:34.763Z,32.50
2018-03-25T17:45:02.376Z,34.00
2018-03-25T17:47:30.755Z,34.60
2018-03-25T17:49:58.337Z,34.60
2018-03-25T17:52:25.936Z,34.40
2018-03-25T17:54:53.541Z,34.70
2018-03-25T17:57:21.902Z,35.30
2018-03-25T17:59:49.549Z,34.80
2018-03-25T18:02:17.158Z,36.10
2018-03-25T18:04:45.539Z,37.90
2018-03-25T18:07:13.491Z,37.80
2018-03-25T18:09:41.866Z,40.20
2018-03-25T18:12:10.112Z,40.20
2018-03-25T18:14:37.723Z,41.40
2018-03-25T18:17:05.316Z,42.80
2018-03-25T18:19:32.924Z,44.30
2018-03-25T18:22:00.495Z,45.90
2018-03-25T18:24:28.152Z,47.70
2018-03-25T18:26:55.724Z,49.20
2018-03-25T18:29:23.312Z,50.80
2018-03-25T18:31:51.658Z,54.70
2018-03-25T18:34:21.711Z,55.90
2018-03-25T18:36:50.075Z,56.90
2018-03-25T18:39:17.643Z,56.80
2018-03-25T18:41:46.743Z,58.60
2018-03-25T18:44:14.308Z,58.60
2018-03-25T18:46:41.904Z,59.90
2018-03-25T18:49:09.523Z,60.40
2018-03-25T18:51:37.075Z,61.20
2018-03-25T18:54:04.960Z,61.70
2018-03-25T18:56:32.621Z,62.20
2018-03-25T18:59:00.209Z,62.70
2018-03-25T19:01:27.791Z,63.00
2018-03-25T19:03:56.039Z,63.70
2018-03-25T19:06:24.373Z,65.70
2018-03-25T19:08:51.944Z,65.70
2018-03-25T19:11:19.547Z,66.80
2018-03-25T19:13:47.117Z,67.30
2018-03-25T19:16:14.714Z,67.90
2018-03-25T19:18:42.330Z,68.60
2018-03-25T19:21:10.781Z,70.20
2018-03-25T19:23:38.672Z,70.10
2018-03-25T19:26:06.467Z,70.60
2018-03-25T19:28:34.887Z,72.30
2018-03-25T19:31:02.566Z,72.20
2018-03-25T19:33:30.215Z,72.70
2018-03-25T19:35:57.943Z,73.10
2018-03-25T19:38:25.681Z,73.30
2018-03-25T19:40:54.032Z,74.30
2018-03-25T19:43:21.844Z,75.20
2018-03-25T19:45:50.373Z,76.50
2018-03-25T19:48:17.970Z,76.50
2018-03-25T19:50:45.581Z,77.00
2018-03-25T19:53:13.506Z,77.20
2018-03-25T19:55:41.187Z,77.40
2018-03-25T19:58:08.774Z,77.40
2018-03-25T20:00:36.363Z,75.70
2018-03-25T20:03:03.954Z,75.40
2018-03-25T20:05:32.447Z,74.70
2018-03-25T20:08:00.069Z,74.80
2018-03-25T20:10:28.107Z,75.40
2018-03-25T20:12:56.456Z,75.70
2018-03-25T20:15:24.134Z,75.70
2018-03-25T20:17:51.760Z,76.10
2018-03-25T20:20:21.117Z,74.30
2018-03-25T20:22:48.831Z,73.40
2018-03-25T20:25:16.597Z,72.70
2018-03-25T20:27:44.171Z,72.10
2018-03-25T20:30:12.279Z,72.00
2018-03-25T20:32:39.866Z,71.90
2018-03-25T20:35:07.464Z,71.50
2018-03-25T20:37:36.752Z,70.80
2018-03-25T20:40:04.736Z,70.80
2018-03-25T20:42:32.632Z,70.70
2018-03-25T20:45:00.219Z,70.30
2018-03-25T20:47:29.246Z,69.80
2018-03-25T20:49:56.959Z,69.80
2018-03-25T20:52:27.246Z,69.50
2018-03-25T20:55:00.416Z,68.70
2018-03-25T20:57:28.883Z,68.10
2018-03-25T21:00:00.430Z,67.00
2018-03-25T21:02:28.926Z,67.00
2018-03-25T21:04:56.549Z,66.30
2018-03-25T21:07:24.260Z,65.30
2018-03-25T21:09:53.473Z,64.80
2018-03-25T21:12:21.599Z,64.60
2018-03-25T21:14:50.644Z,62.80
2018-03-25T21:17:18.493Z,62.80
2018-03-25T21:19:46.109Z,62.00
2018-03-25T21:22:14.507Z,59.60
2018-03-25T21:24:42.230Z,59.60
2018-03-25T21:27:10.954Z,59.20
2018-03-25T21:29:39.372Z,59.00
2018-03-25T21:32:07.336Z,59.00
2018-03-25T21:34:34.936Z,59.00
2018-03-25T21:37:02.523Z,58.90
2018-03-25T21:39:31.185Z,58.90
2018-03-25T21:42:00.355Z,59.10
2018-03-25T21:44:27.961Z,59.10
2018-03-25T21:46:55.598Z,59.10
2018-03-25T21:49:23.955Z,58.90
2018-03-25T21:51:53.752Z,58.90
2018-03-25T21:54:22.344Z,59.40
2018-03-25T21:56:49.966Z,59.00
2018-03-25T21:59:17.588Z,59.10
2018-03-25T22:01:45.568Z,59.40
2018-03-25T22:04:13.527Z,59.20
2018-03-25T22:06:42.487Z,58.60
2018-03-25T22:09:11.288Z,58.00
2018-03-25T22:11:40.109Z,57.30
2018-03-25T22:14:09.225Z,57.30
2018-03-25T22:16:37.229Z,56.90
2018-03-25T22:19:04.868Z,56.90
2018-03-25T22:21:33.211Z,57.20
2018-03-25T22:24:01.000Z,57.20
2018-03-25T22:26:29.083Z,57.70
2018-03-25T22:28:57.232Z,58.00
2018-03-25T22:31:24.841Z,58.70
2018-03-25T22:33:53.710Z,59.20
2018-03-25T22:36:21.652Z,59.20
2018-03-25T22:38:49.991Z,59.30
2018-03-25T22:41:18.341Z,59.80
2018-03-25T22:43:47.553Z,60.20
2018-03-25T22:46:16.271Z,60.70
2018-03-25T22:48:43.850Z,60.70
2018-03-25T22:51:11.480Z,61.10
2018-03-25T22:53:39.182Z,61.50
2018-03-25T22:56:07.975Z,61.90
2018-03-25T22:58:35.586Z,62.40
2018-03-25T23:01:04.024Z,63.10
2018-03-25T23:03:32.579Z,63.10
2018-03-25T23:06:00.215Z,63.70
2018-03-25T23:08:27.955Z,64.30
2018-03-25T23:13:30.069Z,65.20
2018-03-25T23:15:57.626Z,66.30
2018-03-25T23:18:25.188Z,67.20
2018-03-25T23:20:52.794Z,68.10
2018-03-25T23:23:20.392Z,69.20
2018-03-25T23:25:48.090Z,69.90
2018-03-25T23:28:16.474Z,70.50
2018-03-25T23:30:45.084Z,71.30
2018-03-25T23:33:12.711Z,71.20
2018-03-25T23:35:41.808Z,71.20
2018-03-25T23:38:10.412Z,71.10
2018-03-25T23:40:38.795Z,72.10
2018-03-25T23:43:07.363Z,72.20
2018-03-25T23:45:34.971Z,72.10
2018-03-25T23:48:02.542Z,72.40
2018-03-25T23:50:30.672Z,72.70
2018-03-25T23:52:59.606Z,73.90
2018-03-25T23:55:27.212Z,73.90
2018-03-25T23:57:54.950Z,74.20
